createdAt,value
2023-02-28T00:05:40.380Z,101716.56
2023-02-28T00:15:10.934Z,101716.13
2023-02-28T00:18:18.897Z,101708.78
2023-02-28T00:21:08.741Z,101714.28
2023-02-28T00:24:04.472Z,101707.28
2023-02-28T00:26:56.994Z,101710.94
2023-02-28T00:29:53.509Z,101704.91
2023-02-28T00:32:59.295Z,101697.28
2023-02-28T00:35:57.196Z,101696.59
2023-02-28T00:48:23.734Z,101702.25
2023-02-28T00:51:15.426Z,101709.28
2023-02-28T00:54:04.239Z,101706.66
2023-02-28T00:56:52.851Z,101710.63
2023-02-28T00:59:41.749Z,101706.94
2023-02-28T01:02:31.405Z,101707.28
2023-02-28T01:05:21.500Z,101702.94
2023-02-28T01:08:14.609Z,101709.28
2023-02-28T01:11:10.584Z,101713.25
2023-02-28T01:14:00.013Z,101701.28
2023-02-28T01:16:56.395Z,101701.94
2023-02-28T01:19:47.312Z,101694.72
2023-02-28T01:26:00.557Z,101693.88
2023-02-28T01:28:59.292Z,101699.94
2023-02-28T01:31:57.847Z,101699.94
2023-02-28T01:42:48.564Z,101699.94
2023-02-28T01:49:24.289Z,101694.13
2023-02-28T01:52:23.642Z,101686.25
2023-02-28T01:55:20.476Z,101691.28
2023-02-28T01:58:26.264Z,101690.63
2023-02-28T02:01:52.701Z,101686.25
2023-02-28T02:04:59.194Z,101687.97
2023-02-28T02:07:56.480Z,101688.75
2023-02-28T02:10:54.124Z,101687.94
2023-02-28T02:13:59.513Z,101683.25
2023-02-28T02:16:58.608Z,101689.28
2023-02-28T02:20:42.176Z,101679.25
2023-02-28T02:23:41.838Z,101681.22
2023-02-28T02:30:56.034Z,101677.56
2023-02-28T02:34:36.941Z,101677.06
2023-02-28T02:37:41.139Z,101672.72
2023-02-28T02:40:36.398Z,101672.59
2023-02-28T02:43:42.278Z,101674.25
2023-02-28T02:46:36.904Z,101672.22
2023-02-28T02:49:34.162Z,101682.44
2023-02-28T02:52:35.858Z,101675.72
2023-02-28T02:58:45.943Z,101682.91
2023-02-28T03:01:45.337Z,101680.59
2023-02-28T03:08:13.516Z,101682.25
2023-02-28T03:14:50.832Z,101689.38
2023-02-28T03:21:45.616Z,101682.59
2023-02-28T03:24:51.058Z,101681.91
2023-02-28T03:38:21.250Z,101682.22
2023-02-28T03:45:31.747Z,101679.06
2023-02-28T03:48:25.332Z,101676.94
2023-02-28T03:51:31.400Z,101679.56
2023-02-28T03:54:25.749Z,101678.72
2023-02-28T04:04:52.587Z,101696.72
2023-02-28T04:11:22.272Z,101701.53
2023-02-28T04:17:39.878Z,101703.19
2023-02-28T04:38:56.904Z,101719.53
2023-02-28T04:42:08.120Z,101716.38
2023-02-28T04:54:42.323Z,101715.22
2023-02-28T05:04:11.565Z,101719.00
2023-02-28T05:07:11.562Z,101726.53
2023-02-28T05:21:21.936Z,101732.19
2023-02-28T05:24:15.980Z,101733.88
2023-02-28T05:27:05.026Z,101736.22
2023-02-28T05:29:53.689Z,101737.63
2023-02-28T05:32:43.874Z,101734.59
2023-02-28T05:35:32.560Z,101735.94
2023-02-28T05:38:22.662Z,101739.91
2023-02-28T05:41:12.331Z,101729.25
2023-02-28T05:44:02.342Z,101747.91
2023-02-28T05:46:51.009Z,101744.94
2023-02-28T05:56:07.063Z,101740.53
2023-02-28T05:58:56.289Z,101739.19
2023-02-28T06:01:52.599Z,101749.22
2023-02-28T06:04:49.620Z,101754.88
2023-02-28T06:08:07.385Z,101753.56
2023-02-28T06:11:27.719Z,101756.41
2023-02-28T06:18:17.964Z,101758.97
2023-02-28T06:21:16.903Z,101765.97
2023-02-28T06:24:29.025Z,101766.25
2023-02-28T06:27:51.351Z,101767.97
2023-02-28T06:30:46.663Z,101764.56
2023-02-28T06:33:43.543Z,101779.75
2023-02-28T06:36:34.580Z,101777.06
2023-02-28T06:39:24.823Z,101785.56
2023-02-28T06:42:14.136Z,101794.22
2023-02-28T06:45:21.003Z,101801.22
2023-02-28T06:55:25.722Z,101806.56
2023-02-28T06:58:32.806Z,101814.69
2023-02-28T07:04:56.943Z,101826.94
2023-02-28T07:08:00.858Z,101826.75
2023-02-28T07:14:05.942Z,101816.38
2023-02-28T07:20:00.691Z,101831.69
2023-02-28T07:22:56.769Z,101829.56
2023-02-28T07:25:50.994Z,101822.22
2023-02-28T07:28:44.525Z,101825.56
2023-02-28T07:31:34.376Z,101823.59
2023-02-28T07:34:23.616Z,101823.59
2023-02-28T07:37:15.498Z,101814.59
2023-02-28T07:40:09.318Z,101825.28
2023-02-28T07:42:59.564Z,101829.00
2023-02-28T07:46:06.934Z,101827.91
2023-02-28T07:52:18.687Z,101824.03
2023-02-28T07:55:11.072Z,101830.66
2023-02-28T07:58:05.404Z,101832.03
2023-02-28T08:00:56.769Z,101837.06
2023-02-28T08:03:50.940Z,101833.72
2023-02-28T08:06:40.196Z,101836.88
2023-02-28T08:09:35.795Z,101835.41
2023-02-28T08:12:36.831Z,101827.78
2023-02-28T08:15:42.045Z,101836.44
2023-02-28T08:18:33.908Z,101825.97
2023-02-28T08:21:24.253Z,101841.16
2023-02-28T08:24:14.064Z,101832.16
2023-02-28T08:27:12.962Z,101826.16
2023-02-28T08:30:11.399Z,101832.84
2023-02-28T08:33:04.921Z,101833.34
2023-02-28T08:36:00.322Z,101835.50
2023-02-28T08:38:49.986Z,101837.34
2023-02-28T08:42:05.763Z,101831.81
2023-02-28T08:44:59.332Z,101832.44
2023-02-28T08:47:49.787Z,101837.28
2023-02-28T08:50:39.810Z,101840.94
2023-02-28T08:53:32.204Z,101843.66
2023-02-28T08:56:24.227Z,101829.31
2023-02-28T08:59:13.831Z,101839.63
2023-02-28T09:02:08.875Z,101841.16
2023-02-28T09:04:58.153Z,101838.63
2023-02-28T09:07:50.930Z,101839.88
2023-02-28T09:10:42.941Z,101839.22
2023-02-28T09:13:33.668Z,101836.50
2023-02-28T09:16:23.326Z,101829.81
2023-02-28T09:19:15.637Z,101827.31
2023-02-28T09:22:05.721Z,101830.00
2023-02-28T09:24:55.560Z,101832.19
2023-02-28T09:27:56.791Z,101832.53
2023-02-28T09:30:48.022Z,101830.06
2023-02-28T09:33:37.534Z,101832.63
2023-02-28T09:36:38.146Z,101832.00
2023-02-28T09:39:34.487Z,101821.66
2023-02-28T09:42:28.228Z,101822.31
2023-02-28T09:45:26.125Z,101825.31
2023-02-28T09:48:19.405Z,101825.13
2023-02-28T09:51:30.614Z,101823.31
2023-02-28T09:54:21.894Z,101820.97
2023-02-28T09:57:18.647Z,101823.13
2023-02-28T10:00:14.576Z,101821.81
2023-02-28T10:03:31.364Z,101834.00
2023-02-28T10:06:23.560Z,101828.50
2023-02-28T10:09:16.960Z,101827.16
2023-02-28T10:12:11.003Z,101823.31
2023-02-28T10:15:09.712Z,101820.94
2023-02-28T10:18:08.792Z,101827.75
2023-02-28T10:20:59.634Z,101832.97
2023-02-28T10:23:50.007Z,101823.94
2023-02-28T10:26:39.704Z,101828.28
2023-02-28T10:29:30.288Z,101827.28
2023-02-28T10:32:24.526Z,101832.16
2023-02-28T10:35:18.778Z,101834.63
2023-02-28T10:38:19.643Z,101824.81
2023-02-28T10:41:10.833Z,101833.66
2023-02-28T10:44:23.407Z,101829.31
2023-02-28T10:47:18.247Z,101831.63
2023-02-28T10:50:08.390Z,101823.63
2023-02-28T10:52:58.092Z,101828.47
2023-02-28T10:55:49.261Z,101821.66
2023-02-28T10:58:50.744Z,101824.97
2023-02-28T11:01:42.500Z,101808.59
2023-02-28T11:04:41.363Z,101812.13
2023-02-28T11:07:41.460Z,101809.59
2023-02-28T11:10:40.309Z,101811.59
2023-02-28T11:13:37.429Z,101801.84
2023-02-28T11:16:35.292Z,101805.25
2023-02-28T11:19:29.042Z,101803.03
2023-02-28T11:22:25.493Z,101798.91
2023-02-28T11:25:24.353Z,101787.22
2023-02-28T11:28:28.687Z,101797.25
2023-02-28T11:31:23.327Z,101795.09
2023-02-28T11:34:28.720Z,101788.25
2023-02-28T11:37:20.397Z,101788.56
2023-02-28T11:40:16.322Z,101780.41
2023-02-28T11:43:13.406Z,101781.56
2023-02-28T11:46:11.387Z,101777.88
2023-02-28T11:49:23.577Z,101780.91
2023-02-28T11:52:27.188Z,101766.88
2023-02-28T11:55:23.970Z,101776.91
2023-02-28T11:58:30.056Z,101764.19
2023-02-28T12:01:29.517Z,101760.88
2023-02-28T12:04:32.322Z,101766.88
2023-02-28T12:07:31.436Z,101766.88
2023-02-28T12:10:26.939Z,101764.03
2023-02-28T12:13:25.687Z,101761.88
2023-02-28T12:16:35.707Z,101760.22
2023-02-28T12:19:30.269Z,101758.19
2023-02-28T12:22:29.322Z,101766.03
2023-02-28T12:25:42.658Z,101755.53
2023-02-28T12:28:40.034Z,101760.53
2023-02-28T12:31:34.406Z,101748.50
2023-02-28T12:34:29.805Z,101760.88
2023-02-28T12:37:25.803Z,101760.53
2023-02-28T12:40:19.655Z,101757.22
2023-02-28T12:43:12.094Z,101757.22
2023-02-28T12:46:09.229Z,101755.19
2023-02-28T12:49:00.872Z,101761.53
2023-02-28T12:51:52.720Z,101752.34
2023-02-28T12:54:47.907Z,101754.19
2023-02-28T12:57:40.632Z,101748.19
2023-02-28T13:00:34.123Z,101748.19
2023-02-28T13:03:46.657Z,101741.16
2023-02-28T13:06:47.666Z,101745.00
2023-02-28T13:09:38.672Z,101743.84
2023-02-28T13:12:32.051Z,101745.50
2023-02-28T13:15:25.445Z,101736.81
2023-02-28T13:18:32.852Z,101740.16
2023-02-28T13:21:34.088Z,101742.81
2023-02-28T13:24:52.574Z,101745.34
2023-02-28T13:27:48.934Z,101738.19
2023-02-28T13:31:10.414Z,101744.84
2023-02-28T13:34:16.698Z,101737.31
2023-02-28T13:37:36.560Z,101734.63
2023-02-28T13:40:39.697Z,101738.16
2023-02-28T13:44:03.555Z,101734.16
2023-02-28T13:47:28.636Z,101719.09
2023-02-28T13:50:26.247Z,101722.28
2023-02-28T13:53:53.585Z,101719.44
2023-02-28T13:56:49.656Z,101712.94
2023-02-28T13:59:53.886Z,101715.59
2023-02-28T14:03:15.187Z,101710.41
2023-02-28T14:06:26.171Z,101709.06
2023-02-28T14:09:25.015Z,101708.41
2023-02-28T14:12:55.248Z,101704.22
2023-02-28T14:15:55.509Z,101706.06
2023-02-28T14:18:52.018Z,101697.22
2023-02-28T14:21:50.561Z,101693.69
2023-02-28T14:25:04.547Z,101694.38
2023-02-28T14:28:02.064Z,101691.03
2023-02-28T14:31:05.036Z,101683.03
2023-02-28T14:34:18.226Z,101681.06
2023-02-28T14:37:15.573Z,101680.56
2023-02-28T14:40:09.003Z,101681.72
2023-02-28T14:43:04.442Z,101674.69
2023-02-28T14:46:03.365Z,101678.41
2023-02-28T14:48:57.897Z,101678.75
2023-02-28T14:51:52.176Z,101681.03
2023-02-28T14:54:59.379Z,101682.03
2023-02-28T14:57:57.373Z,101679.53
2023-02-28T15:00:53.856Z,101682.03
2023-02-28T15:03:51.091Z,101685.50
2023-02-28T15:06:40.720Z,101683.84
2023-02-28T15:09:40.466Z,101685.19
2023-02-28T15:12:38.485Z,101690.03
2023-02-28T15:15:46.185Z,101688.72
2023-02-28T15:18:50.120Z,101694.41
2023-02-28T15:22:04.144Z,101689.69
2023-02-28T15:25:12.467Z,101699.03
2023-02-28T15:28:25.690Z,101689.72
2023-02-28T15:31:50.309Z,101691.03
2023-02-28T15:38:17.723Z,101685.38
2023-02-28T15:41:24.553Z,101685.19
2023-02-28T15:44:41.675Z,101687.53
2023-02-28T15:47:42.310Z,101689.06
2023-02-28T15:50:35.173Z,101700.38
2023-02-28T15:53:29.589Z,101687.88
2023-02-28T15:56:33.297Z,101692.72
2023-02-28T15:59:25.641Z,101689.53
2023-02-28T16:02:22.380Z,101692.38
2023-02-28T16:05:30.707Z,101687.38
2023-02-28T16:08:24.717Z,101686.53
2023-02-28T16:11:15.099Z,101691.03
2023-02-28T16:14:07.391Z,101688.38
2023-02-28T16:16:58.964Z,101691.16
2023-02-28T16:19:48.102Z,101689.00
2023-02-28T16:22:38.442Z,101689.00
2023-02-28T16:25:36.248Z,101686.53
2023-02-28T16:28:33.562Z,101687.69
2023-02-28T16:31:46.601Z,101686.34
2023-02-28T16:38:44.314Z,101687.03
2023-02-28T16:42:23.640Z,101688.84
2023-02-28T17:03:54.149Z,101690.31
2023-02-28T17:14:21.598Z,101694.47
2023-02-28T17:17:19.912Z,101693.63
2023-02-28T17:20:28.049Z,101703.31
2023-02-28T17:23:17.997Z,101699.97
2023-02-28T17:29:17.754Z,101702.31
2023-02-28T17:35:31.008Z,101708.97
2023-02-28T18:10:29.458Z,101685.84
2023-02-28T18:17:53.206Z,101690.03
2023-02-28T18:32:22.749Z,101695.59
2023-02-28T19:02:01.802Z,101694.38
2023-02-28T19:08:56.989Z,101682.88
2023-02-28T19:21:31.401Z,101697.72
2023-02-28T19:24:42.834Z,101699.53
2023-02-28T19:27:40.161Z,101692.69
2023-02-28T19:33:41.704Z,101703.38
2023-02-28T19:37:07.073Z,101698.31
2023-02-28T19:40:00.908Z,101701.03
2023-02-28T19:42:51.238Z,101697.72
2023-02-28T19:45:40.489Z,101695.84
2023-02-28T19:48:30.078Z,101702.31
2023-02-28T19:51:19.650Z,101697.31
2023-02-28T19:54:10.095Z,101701.81
2023-02-28T19:57:02.175Z,101703.22
2023-02-28T19:59:52.285Z,101709.63
2023-02-28T20:02:48.308Z,101710.38
2023-02-28T20:05:46.214Z,101710.53
2023-02-28T20:08:36.322Z,101708.53
2023-02-28T20:11:28.070Z,101715.59
2023-02-28T20:14:20.185Z,101719.94
2023-02-28T20:17:09.556Z,101716.09
2023-02-28T20:23:02.457Z,101718.78
2023-02-28T20:25:54.194Z,101707.25
2023-02-28T20:28:45.177Z,101712.78
2023-02-28T20:31:42.099Z,101714.25
2023-02-28T20:34:33.891Z,101717.59
2023-02-28T20:37:22.822Z,101709.09
2023-02-28T20:40:19.681Z,101717.78
2023-02-28T20:43:08.825Z,101711.78
2023-02-28T20:46:06.556Z,101712.78
2023-02-28T20:49:14.210Z,101716.44
2023-02-28T20:52:09.835Z,101721.44
2023-02-28T20:55:03.715Z,101717.78
2023-02-28T20:57:56.469Z,101720.78
2023-02-28T21:00:45.570Z,101723.13
2023-02-28T21:03:36.109Z,101735.47
2023-02-28T21:06:28.922Z,101729.47
2023-02-28T21:09:18.467Z,101724.47
2023-02-28T21:12:07.729Z,101727.09
2023-02-28T21:14:56.744Z,101726.06
2023-02-28T21:17:48.287Z,101729.22
2023-02-28T21:20:36.994Z,101724.06
2023-02-28T21:23:27.348Z,101716.84
2023-02-28T21:26:19.255Z,101715.72
2023-02-28T21:29:08.382Z,101719.06
2023-02-28T21:31:57.179Z,101711.69
2023-02-28T21:34:48.227Z,101711.69
2023-02-28T21:37:39.494Z,101709.69
2023-02-28T21:40:29.758Z,101714.69
2023-02-28T21:43:21.465Z,101718.00
2023-02-28T21:46:12.057Z,101716.66
2023-02-28T21:49:00.974Z,101722.00
2023-02-28T21:51:57.739Z,101715.97
2023-02-28T21:54:46.988Z,101727.00
2023-02-28T21:57:37.490Z,101721.47
2023-02-28T22:00:27.426Z,101728.47
2023-02-28T22:03:23.000Z,101716.63
2023-02-28T22:06:14.082Z,101717.31
2023-02-28T22:09:06.137Z,101713.66
2023-02-28T22:11:55.230Z,101707.13
2023-02-28T22:14:46.226Z,101713.94
2023-02-28T22:17:35.690Z,101716.31
2023-02-28T22:20:24.514Z,101717.63
2023-02-28T22:23:13.279Z,101721.63
2023-02-28T22:26:02.428Z,101723.31
2023-02-28T22:28:51.795Z,101726.63
2023-02-28T22:31:42.470Z,101722.94
2023-02-28T22:34:31.500Z,101710.63
2023-02-28T22:37:21.874Z,101714.94
2023-02-28T22:40:11.999Z,101714.50
2023-02-28T22:43:00.637Z,101720.31
2023-02-28T22:45:49.550Z,101716.31
2023-02-28T22:48:40.130Z,101722.34
2023-02-28T22:51:29.270Z,101723.31
2023-02-28T22:54:18.390Z,101732.66
2023-02-28T22:57:07.243Z,101722.50
2023-02-28T22:59:56.058Z,101719.34
2023-02-28T23:02:45.148Z,101716.03
2023-02-28T23:05:35.271Z,101718.88
2023-02-28T23:08:24.225Z,101722.34
2023-02-28T23:11:18.100Z,101729.38
2023-02-28T23:14:14.368Z,101727.34
2023-02-28T23:17:03.103Z,101729.84
2023-02-28T23:19:51.998Z,101725.66
2023-02-28T23:22:50.732Z,101727.66
2023-02-28T23:25:41.929Z,101741.03
2023-02-28T23:28:31.372Z,101740.66
2023-02-28T23:31:20.138Z,101733.50
2023-02-28T23:34:09.552Z,101746.69
2023-02-28T23:37:00.535Z,101737.66
2023-02-28T23:39:51.647Z,101749.00
